Impacts METAR Board
IDs:

KSEA - Seattle-Tacoma Intl, WA, US

Updated at: 2100 UTC 08 Feb 2023
Potential Impact None Slight Moderate High
Time 08/09Z 08/10Z 08/11Z 08/12Z 08/13Z 08/14Z 08/15Z 08/16Z 08/17Z 08/18Z 08/19Z 08/20Z 08/21Z
Temp40 41 41 40 39 39 39 40 40 41 44 45 47
Dewpt35 36 36 36 35 35 34 35 35 35 36 36 35
Altim30.32 30.35 30.37 30.38 30.41 30.43 30.44 30.47 30.48 30.51 30.50 30.51 30.50
VIS10 10 10 10 10 10 10 10 10 10 10 10 10
CIG-- 120 16 12 13 12 16 22 26 24 22 30 250
CoverSCTBKNOVCOVCOVCOVCBKNBKNBKNOVCBKNBKNBKN
FltCatVFRVFRMVFRMVFRMVFRMVFRMVFRMVFRMVFRMVFRMVFRMVFRVFR
WX--------------------------
WDir220210220210200140190170170180200230250
WSpd12 10 6 10 7 6 7 6 6 6 7 7 8
WGst-- -- -- -- -- -- -- -- -- -- -- -- --
Raw hourly METARs
KSEA 080853Z 22012KT 10SM SCT016 04/02 A3032 RMK AO2 SLP277 T00440017 51014
KSEA 080953Z 21010KT 10SM SCT016 BKN120 05/02 A3035 RMK AO2 SLP285 T00500022
KSEA 081053Z 22006KT 10SM BKN016 OVC110 05/02 A3037 RMK AO2 SLP292 T00500022
KSEA 081153Z 21010KT 10SM OVC012 04/02 A3038 RMK AO2 SLP297 70030 T00440022 10056 20044 51020
KSEA 081253Z 20007KT 10SM OVC013 04/02 A3041 RMK AO2 SLP305 T00390017
KSEA 081353Z 14006KT 10SM OVC012 04/02 A3043 RMK AO2 SLP313 T00390017
KSEA 081453Z 19007KT 10SM BKN016 04/01 A3044 RMK AO2 SLP318 T00390011 51020
KSEA 081553Z 17006KT 10SM SCT015 BKN022 04/02 A3047 RMK AO2 SLP328 T00440017
KSEA 081653Z 17006KT 10SM BKN026 04/02 A3048 RMK AO2 SLP332 T00440017
KSEA 081800Z 18006KT 10SM FEW012 OVC024 05/02 A3051 RMK AO2 T00500017
KSEA 081853Z 20007KT 10SM SCT015 BKN022 07/02 A3050 RMK AO2 SLP336 T00670022
KSEA 081953Z 23007KT 10SM SCT017 BKN030 BKN120 BKN250 07/02 A3051 RMK AO2 SLP339 T00720022
KSEA 082053Z 25008KT 10SM SCT020 BKN250 08/02 A3050 RMK AO2 SLP339 T00830017 56001



Page loaded:  21:10 UTC  |   01:10 PM Pacific  |   02:10 PM Mountain  |   03:10 PM Central  |   04:10 PM Eastern

 

ADVISORIES

FORECASTS

FORECASTS

OBSERVATIONS

USER TOOLS

ABOUT US